sensor_id;sensor_type;location;lat;lon;timestamp;pressure;altitude;pressure_sealevel;temperature;humidity
67517;BME280;68821;59.134;37.894;2023-04-05T00:00:48;100614.34;;;4.63;79.30
67517;BME280;68821;59.134;37.894;2023-04-05T00:03:15;100619.59;;;4.66;79.30
67517;BME280;68821;59.134;37.894;2023-04-05T00:05:43;100627.97;;;4.63;78.92
67517;BME280;68821;59.134;37.894;2023-04-05T00:08:10;100630.53;;;4.63;79.00
67517;BME280;68821;59.134;37.894;2023-04-05T00:10:49;100637.34;;;4.64;79.00
67517;BME280;68821;59.134;37.894;2023-04-05T00:13:15;100629.44;;;4.58;79.28
67517;BME280;68821;59.134;37.894;2023-04-05T00:15:42;100640.63;;;4.62;79.08
67517;BME280;68821;59.134;37.894;2023-04-05T00:18:08;100636.41;;;4.62;78.95
67517;BME280;68821;59.134;37.894;2023-04-05T00:20:52;100633.00;;;4.62;79.01
67517;BME280;68821;59.134;37.894;2023-04-05T00:23:19;100627.91;;;4.62;78.92
67517;BME280;68821;59.134;37.894;2023-04-05T00:25:50;100614.75;;;4.53;78.75
67517;BME280;68821;59.134;37.894;2023-04-05T00:28:16;100630.44;;;4.62;78.94
67517;BME280;68821;59.134;37.894;2023-04-05T00:30:43;100635.47;;;4.60;78.84
67517;BME280;68821;59.134;37.894;2023-04-05T00:33:11;100628.56;;;4.58;78.87
67517;BME280;68821;59.134;37.894;2023-04-05T00:35:38;100606.78;;;4.45;79.29
67517;BME280;68821;59.134;37.894;2023-04-05T00:38:04;100620.72;;;4.53;79.22
67517;BME280;68821;59.134;37.894;2023-04-05T00:40:31;100628.38;;;4.53;79.50
67517;BME280;68821;59.134;37.894;2023-04-05T00:42:57;100628.38;;;4.53;78.88
67517;BME280;68821;59.134;37.894;2023-04-05T00:45:23;100622.25;;;4.50;79.24
67517;BME280;68821;59.134;37.894;2023-04-05T00:47:49;100631.69;;;4.52;79.04
67517;BME280;68821;59.134;37.894;2023-04-05T00:50:16;100642.75;;;4.53;79.13
67517;BME280;68821;59.134;37.894;2023-04-05T00:52:42;100646.19;;;4.53;79.41
67517;BME280;68821;59.134;37.894;2023-04-05T00:55:09;100651.13;;;4.50;79.24
67517;BME280;68821;59.134;37.894;2023-04-05T00:57:36;100647.72;;;4.50;79.19
67517;BME280;68821;59.134;37.894;2023-04-05T01:00:06;100656.09;;;4.47;79.03
67517;BME280;68821;59.134;37.894;2023-04-05T01:02:44;100659.63;;;4.51;79.31
67517;BME280;68821;59.134;37.894;2023-04-05T01:05:29;100656.97;;;4.48;79.20
67517;BME280;68821;59.134;37.894;2023-04-05T01:08:18;100646.50;;;4.41;79.12
67517;BME280;68821;59.134;37.894;2023-04-05T01:10:57;100658.19;;;4.38;79.05
67517;BME280;68821;59.134;37.894;2023-04-05T01:13:24;100664.22;;;4.40;79.11
67517;BME280;68821;59.134;37.894;2023-04-05T01:15:51;100661.78;;;4.41;79.35
67517;BME280;68821;59.134;37.894;2023-04-05T01:18:17;100664.41;;;4.43;79.45
67517;BME280;68821;59.134;37.894;2023-04-05T01:21:08;100664.31;;;4.41;79.33
67517;BME280;68821;59.134;37.894;2023-04-05T01:24:11;100668.53;;;4.41;79.09
67517;BME280;68821;59.134;37.894;2023-04-05T01:27:03;100671.09;;;4.41;79.40
67517;BME280;68821;59.134;37.894;2023-04-05T01:35:51;100678.72;;;4.41;79.40
67517;BME280;68821;59.134;37.894;2023-04-05T01:37:56;100675.06;;;4.36;79.43
67517;BME280;68821;59.134;37.894;2023-04-05T01:40:24;100673.38;;;4.36;79.21
67517;BME280;68821;59.134;37.894;2023-04-05T01:42:51;100682.88;;;4.39;79.13
67517;BME280;68821;59.134;37.894;2023-04-05T01:45:17;100674.94;;;4.33;79.18
67517;BME280;68821;59.134;37.894;2023-04-05T01:47:46;100689.69;;;4.40;79.44
67517;BME280;68821;59.134;37.894;2023-04-05T01:50:12;100689.69;;;4.40;79.42
67517;BME280;68821;59.134;37.894;2023-04-05T01:52:38;100685.34;;;4.37;79.13
67517;BME280;68821;59.134;37.894;2023-04-05T01:55:05;100687.88;;;4.37;79.11
67517;BME280;68821;59.134;37.894;2023-04-05T01:57:31;100686.06;;;4.35;79.21
67517;BME280;68821;59.134;37.894;2023-04-05T01:59:58;100685.91;;;4.32;79.15
67517;BME280;68821;59.134;37.894;2023-04-05T02:02:24;100691.66;;;4.28;79.51
67517;BME280;68821;59.134;37.894;2023-04-05T02:04:50;100694.38;;;4.31;79.43
67517;BME280;68821;59.134;37.894;2023-04-05T02:07:17;100698.44;;;4.27;79.53
67517;BME280;68821;59.134;37.894;2023-04-05T02:09:43;100690.78;;;4.27;79.46
67517;BME280;68821;59.134;37.894;2023-04-05T02:12:09;100691.81;;;4.31;79.17
67517;BME280;68821;59.134;37.894;2023-04-05T02:14:36;100696.97;;;4.32;79.35
67517;BME280;68821;59.134;37.894;2023-04-05T02:17:02;100694.41;;;4.32;79.39
67517;BME280;68821;59.134;37.894;2023-04-05T02:19:29;100693.41;;;4.29;79.31
67517;BME280;68821;59.134;37.894;2023-04-05T02:22:02;100693.25;;;4.26;79.17
67517;BME280;68821;59.134;37.894;2023-04-05T02:24:28;100690.28;;;4.16;79.25
67517;BME280;68821;59.134;37.894;2023-04-05T02:26:55;100685.91;;;4.14;78.93
67517;BME280;68821;59.134;37.894;2023-04-05T02:29:21;100696.81;;;4.11;79.07
67517;BME280;68821;59.134;37.894;2023-04-05T02:31:47;100699.94;;;4.06;79.30
67517;BME280;68821;59.134;37.894;2023-04-05T02:34:13;100699.78;;;4.02;79.32
67517;BME280;68821;59.134;37.894;2023-04-05T02:36:39;100708.28;;;4.03;79.17
67517;BME280;68821;59.134;37.894;2023-04-05T02:39:06;100701.31;;;3.99;79.24
67517;BME280;68821;59.134;37.894;2023-04-05T02:41:33;100709.81;;;3.99;79.20
67517;BME280;68821;59.134;37.894;2023-04-05T02:43:59;100707.06;;;3.95;79.23
67517;BME280;68821;59.134;37.894;2023-04-05T02:46:25;100710.25;;;3.91;79.29
67517;BME280;68821;59.134;37.894;2023-04-05T02:48:51;100709.28;;;3.89;79.46
67517;BME280;68821;59.134;37.894;2023-04-05T02:51:17;100715.19;;;3.88;79.63
67517;BME280;68821;59.134;37.894;2023-04-05T02:53:44;100715.09;;;3.86;79.05
67517;BME280;68821;59.134;37.894;2023-04-05T02:56:10;100712.47;;;3.85;79.63
67517;BME280;68821;59.134;37.894;2023-04-05T02:58:39;100716.78;;;3.86;79.18
67517;BME280;68821;59.134;37.894;2023-04-05T03:01:06;100720.94;;;3.83;79.39
67517;BME280;68821;59.134;37.894;2023-04-05T03:03:32;100714.91;;;3.81;79.29
67517;BME280;68821;59.134;37.894;2023-04-05T03:06:03;100712.34;;;3.81;79.70
67517;BME280;68821;59.134;37.894;2023-04-05T03:08:36;100712.25;;;3.80;79.40
67517;BME280;68821;59.134;37.894;2023-04-05T03:11:06;100717.66;;;3.86;79.56
67517;BME280;68821;59.134;37.894;2023-04-05T03:13:32;100716.84;;;3.87;79.55
67517;BME280;68821;59.134;37.894;2023-04-05T03:15:58;100720.19;;;3.86;79.27
67517;BME280;68821;59.134;37.894;2023-04-05T03:18:25;100711.69;;;3.86;79.39
67517;BME280;68821;59.134;37.894;2023-04-05T03:20:51;100720.50;;;3.92;79.62
67517;BME280;68821;59.134;37.894;2023-04-05T03:23:28;100724.94;;;3.96;79.75
67517;BME280;68821;59.134;37.894;2023-04-05T03:26:02;100728.44;;;3.98;79.68
67517;BME280;68821;59.134;37.894;2023-04-05T03:28:29;100724.94;;;3.96;79.17
67517;BME280;68821;59.134;37.894;2023-04-05T03:30:57;100730.09;;;3.98;79.34
67517;BME280;68821;59.134;37.894;2023-04-05T03:33:23;100729.28;;;3.99;79.14
67517;BME280;68821;59.134;37.894;2023-04-05T03:35:50;100729.22;;;3.97;79.46
67517;BME280;68821;59.134;37.894;2023-04-05T03:38:16;100741.16;;;3.98;79.06
67517;BME280;68821;59.134;37.894;2023-04-05T03:40:42;100745.28;;;3.96;79.25
67517;BME280;68821;59.134;37.894;2023-04-05T03:43:08;100747.09;;;3.99;79.34
67517;BME280;68821;59.134;37.894;2023-04-05T03:45:34;100750.38;;;3.96;79.08
67517;BME280;68821;59.134;37.894;2023-04-05T03:48:00;100751.97;;;3.94;78.73
67517;BME280;68821;59.134;37.894;2023-04-05T03:50:27;100755.94;;;3.89;79.14
67517;BME280;68821;59.134;37.894;2023-04-05T03:52:53;100758.34;;;3.86;78.77
67517;BME280;68821;59.134;37.894;2023-04-05T03:55:20;100759.84;;;3.82;79.47
67517;BME280;68821;59.134;37.894;2023-04-05T03:57:46;100765.75;;;3.81;78.96
67517;BME280;68821;59.134;37.894;2023-04-05T04:00:13;100768.28;;;3.81;78.95
67517;BME280;68821;59.134;37.894;2023-04-05T04:02:44;100751.91;;;3.76;79.31
67517;BME280;68821;59.134;37.894;2023-04-05T04:05:11;100767.16;;;3.93;79.38
67517;BME280;68821;59.134;37.894;2023-04-05T04:07:38;100773.41;;;3.99;79.14
67517;BME280;68821;59.134;37.894;2023-04-05T04:10:05;100779.53;;;4.03;79.38
67517;BME280;68821;59.134;37.894;2023-04-05T04:12:31;100777.78;;;4.02;79.05
67517;BME280;68821;59.134;37.894;2023-04-05T04:14:57;100788.97;;;4.06;78.79
67517;BME280;68821;59.134;37.894;2023-04-05T04:17:27;100787.25;;;4.05;78.90
67517;BME280;68821;59.134;37.894;2023-04-05T04:19:55;100788.19;;;4.07;78.62
67517;BME280;68821;59.134;37.894;2023-04-05T04:22:23;100795.81;;;4.07;78.99
67517;BME280;68821;59.134;37.894;2023-04-05T04:24:52;100798.75;;;4.14;78.68
67517;BME280;68821;59.134;37.894;2023-04-05T04:27:18;100800.66;;;4.18;78.59
67517;BME280;68821;59.134;37.894;2023-04-05T04:29:48;100802.84;;;4.29;78.69
67517;BME280;68821;59.134;37.894;2023-04-05T04:32:15;100805.03;;;4.39;78.55
67517;BME280;68821;59.134;37.894;2023-04-05T04:34:42;100810.56;;;4.48;78.40
67517;BME280;68821;59.134;37.894;2023-04-05T04:37:14;100810.50;;;4.64;78.40
67517;BME280;68821;59.134;37.894;2023-04-05T04:39:44;100811.94;;;4.77;78.35
67517;BME280;68821;59.134;37.894;2023-04-05T04:42:12;100810.63;;;4.86;78.03
67517;BME280;68821;59.134;37.894;2023-04-05T04:44:41;100811.81;;;4.92;77.45
67517;BME280;68821;59.134;37.894;2023-04-05T04:47:07;100822.63;;;5.06;77.74
67517;BME280;68821;59.134;37.894;2023-04-05T04:49:38;100821.19;;;5.11;77.14
67517;BME280;68821;59.134;37.894;2023-04-05T04:52:07;100816.28;;;5.16;77.23
67517;BME280;68821;59.134;37.894;2023-04-05T04:54:35;100819.84;;;5.19;76.80
67517;BME280;68821;59.134;37.894;2023-04-05T04:57:01;100820.06;;;5.24;77.28
67517;BME280;68821;59.134;37.894;2023-04-05T04:59:28;100817.69;;;5.29;77.00
67517;BME280;68821;59.134;37.894;2023-04-05T05:01:55;100813.63;;;5.32;77.27
67517;BME280;68821;59.134;37.894;2023-04-05T05:04:21;100819.81;;;5.37;76.21
67517;BME280;68821;59.134;37.894;2023-04-05T05:06:52;100820.69;;;5.38;76.04
67517;BME280;68821;59.134;37.894;2023-04-05T05:09:19;100827.38;;;5.36;76.57
67517;BME280;68821;59.134;37.894;2023-04-05T05:11:45;100821.34;;;5.34;76.67
67517;BME280;68821;59.134;37.894;2023-04-05T05:14:12;100832.75;;;5.42;76.59
67517;BME280;68821;59.134;37.894;2023-04-05T05:16:38;100837.31;;;5.49;76.18
67517;BME280;68821;59.134;37.894;2023-04-05T05:19:04;100841.97;;;5.58;75.76
67517;BME280;68821;59.134;37.894;2023-04-05T05:21:31;100840.50;;;5.63;76.00
67517;BME280;68821;59.134;37.894;2023-04-05T05:23:57;100835.53;;;5.66;75.79
67517;BME280;68821;59.134;37.894;2023-04-05T05:26:23;100825.34;;;5.66;75.54
67517;BME280;68821;59.134;37.894;2023-04-05T05:28:50;100839.31;;;5.74;75.46
67517;BME280;68821;59.134;37.894;2023-04-05T05:31:16;100843.06;;;5.82;75.55
67517;BME280;68821;59.134;37.894;2023-04-05T05:33:42;100836.34;;;5.84;75.16
67517;BME280;68821;59.134;37.894;2023-04-05T05:36:12;100843.44;;;5.92;75.71
67517;BME280;68821;59.134;37.894;2023-04-05T05:38:39;100846.28;;;5.98;74.82
67517;BME280;68821;59.134;37.894;2023-04-05T05:41:05;100841.59;;;6.07;74.67
67517;BME280;68821;59.134;37.894;2023-04-05T05:43:31;100845.28;;;6.14;75.43
67517;BME280;68821;59.134;37.894;2023-04-05T05:46:00;100849.56;;;6.15;74.67
67517;BME280;68821;59.134;37.894;2023-04-05T05:48:26;100849.03;;;6.22;74.78
67517;BME280;68821;59.134;37.894;2023-04-05T05:50:53;100838.06;;;6.24;75.01
67517;BME280;68821;59.134;37.894;2023-04-05T05:53:19;100860.94;;;6.42;74.68
67517;BME280;68821;59.134;37.894;2023-04-05T05:55:45;100862.22;;;6.54;73.90
67517;BME280;68821;59.134;37.894;2023-04-05T05:58:12;100860.13;;;6.64;74.34
67517;BME280;68821;59.134;37.894;2023-04-05T06:00:38;100848.41;;;6.70;74.37
67517;BME280;68821;59.134;37.894;2023-04-05T06:03:04;100854.34;;;6.69;73.44
67517;BME280;68821;59.134;37.894;2023-04-05T06:05:31;100856.75;;;6.65;73.21
67517;BME280;68821;59.134;37.894;2023-04-05T06:07:57;100869.53;;;6.65;73.14
67517;BME280;68821;59.134;37.894;2023-04-05T06:10:23;100861.75;;;6.62;73.22
67517;BME280;68821;59.134;37.894;2023-04-05T06:12:50;100868.78;;;6.68;73.12
67517;BME280;68821;59.134;37.894;2023-04-05T06:15:17;100855.31;;;6.72;74.10
67517;BME280;68821;59.134;37.894;2023-04-05T06:17:43;100855.69;;;6.81;73.31
67517;BME280;68821;59.134;37.894;2023-04-05T06:20:10;100858.56;;;6.89;73.96
67517;BME280;68821;59.134;37.894;2023-04-05T06:22:39;100856.75;;;6.87;73.38
67517;BME280;68821;59.134;37.894;2023-04-05T06:25:07;100854.31;;;6.90;72.59
67517;BME280;68821;59.134;37.894;2023-04-05T06:27:34;100849.31;;;6.93;72.86
67517;BME280;68821;59.134;37.894;2023-04-05T06:30:00;100858.13;;;6.99;72.72
67517;BME280;68821;59.134;37.894;2023-04-05T06:32:27;100864.31;;;7.06;72.88
67517;BME280;68821;59.134;37.894;2023-04-05T06:34:53;100867.19;;;7.14;72.99
67517;BME280;68821;59.134;37.894;2023-04-05T06:37:19;100873.63;;;7.27;72.41
67517;BME280;68821;59.134;37.894;2023-04-05T06:39:46;100873.09;;;7.35;72.65
67517;BME280;68821;59.134;37.894;2023-04-05T06:42:12;100879.31;;;7.42;72.37
67517;BME280;68821;59.134;37.894;2023-04-05T06:44:38;100882.94;;;7.47;71.93
67517;BME280;68821;59.134;37.894;2023-04-05T06:47:05;100889.78;;;7.48;71.74
67517;BME280;68821;59.134;37.894;2023-04-05T06:49:31;100883.09;;;7.52;71.94
67517;BME280;68821;59.134;37.894;2023-04-05T06:51:57;100887.81;;;7.63;71.86
67517;BME280;68821;59.134;37.894;2023-04-05T06:54:24;100888.91;;;7.70;71.55
67517;BME280;68821;59.134;37.894;2023-04-05T06:56:50;100894.19;;;7.75;71.59
67517;BME280;68821;59.134;37.894;2023-04-05T06:59:16;100885.09;;;7.83;71.37
67517;BME280;68821;59.134;37.894;2023-04-05T07:01:42;100890.66;;;7.95;71.32
67517;BME280;68821;59.134;37.894;2023-04-05T07:04:09;100890.28;;;8.09;70.84
67517;BME280;68821;59.134;37.894;2023-04-05T07:06:35;100892.41;;;8.20;70.96
67517;BME280;68821;59.134;37.894;2023-04-05T07:09:04;100887.75;;;8.34;70.51
67517;BME280;68821;59.134;37.894;2023-04-05T07:11:30;100897.72;;;8.51;70.40
67517;BME280;68821;59.134;37.894;2023-04-05T07:13:57;100900.41;;;8.54;70.64
67517;BME280;68821;59.134;37.894;2023-04-05T07:16:23;100897.63;;;8.48;70.35
67517;BME280;68821;59.134;37.894;2023-04-05T07:18:50;100899.13;;;8.41;70.35
67517;BME280;68821;59.134;37.894;2023-04-05T07:21:16;100900.03;;;8.43;70.23
67517;BME280;68821;59.134;37.894;2023-04-05T07:23:42;100905.25;;;8.46;70.04
67517;BME280;68821;59.134;37.894;2023-04-05T07:26:08;100903.94;;;8.57;70.06
67517;BME280;68821;59.134;37.894;2023-04-05T07:28:35;100912.84;;;8.69;69.68
67517;BME280;68821;59.134;37.894;2023-04-05T07:31:02;100918.19;;;8.75;69.40
67517;BME280;68821;59.134;37.894;2023-04-05T07:33:28;100919.63;;;8.66;69.20
67517;BME280;68821;59.134;37.894;2023-04-05T07:35:54;100922.59;;;8.53;69.72
67517;BME280;68821;59.134;37.894;2023-04-05T07:38:21;100915.34;;;8.41;69.84
67517;BME280;68821;59.134;37.894;2023-04-05T07:40:49;100915.00;;;8.32;69.36
67517;BME280;68821;59.134;37.894;2023-04-05T07:43:18;100927.09;;;8.36;69.91
67517;BME280;68821;59.134;37.894;2023-04-05T07:45:44;100926.47;;;8.42;69.57
67517;BME280;68821;59.134;37.894;2023-04-05T07:48:10;100925.75;;;8.46;68.73
67517;BME280;68821;59.134;37.894;2023-04-05T07:50:36;100924.97;;;8.49;69.49
67517;BME280;68821;59.134;37.894;2023-04-05T07:53:05;100927.81;;;8.56;69.02
67517;BME280;68821;59.134;37.894;2023-04-05T07:55:33;100929.00;;;8.66;69.19
67517;BME280;68821;59.134;37.894;2023-04-05T07:58:02;100932.06;;;8.81;69.83
67517;BME280;68821;59.134;37.894;2023-04-05T08:00:28;100930.94;;;8.99;69.26
67517;BME280;68821;59.134;37.894;2023-04-05T08:02:54;100927.84;;;9.09;68.53
67517;BME280;68821;59.134;37.894;2023-04-05T08:05:21;100935.59;;;9.12;68.63
67517;BME280;68821;59.134;37.894;2023-04-05T08:07:47;100935.28;;;9.01;68.00
67517;BME280;68821;59.134;37.894;2023-04-05T08:10:14;100945.25;;;8.92;68.57
67517;BME280;68821;59.134;37.894;2023-04-05T08:12:40;100945.13;;;8.89;68.51
67517;BME280;68821;59.134;37.894;2023-04-05T08:15:07;100939.88;;;8.84;68.46
67517;BME280;68821;59.134;37.894;2023-04-05T08:17:33;100938.53;;;8.70;68.23
67517;BME280;68821;59.134;37.894;2023-04-05T08:19:59;100938.19;;;8.59;68.96
67517;BME280;68821;59.134;37.894;2023-04-05T08:22:29;100936.06;;;8.48;69.02
67517;BME280;68821;59.134;37.894;2023-04-05T08:24:55;100930.53;;;8.37;68.90
67517;BME280;68821;59.134;37.894;2023-04-05T08:27:21;100946.19;;;8.44;68.78
67517;BME280;68821;59.134;37.894;2023-04-05T08:29:49;100939.03;;;8.36;68.95
67517;BME280;68821;59.134;37.894;2023-04-05T08:32:15;100940.66;;;8.34;69.07
67517;BME280;68821;59.134;37.894;2023-04-05T08:34:42;100934.69;;;8.33;68.61
67517;BME280;68821;59.134;37.894;2023-04-05T08:37:08;100940.22;;;8.44;69.72
67517;BME280;68821;59.134;37.894;2023-04-05T08:39:34;100937.00;;;8.50;69.12
67517;BME280;68821;59.134;37.894;2023-04-05T08:42:12;100941.66;;;8.61;68.59
67517;BME280;68821;59.134;37.894;2023-04-05T08:44:40;100943.41;;;8.62;69.08
67517;BME280;68821;59.134;37.894;2023-04-05T08:47:09;100947.81;;;8.66;68.78
67517;BME280;68821;59.134;37.894;2023-04-05T08:49:43;100953.91;;;8.70;68.73
67517;BME280;68821;59.134;37.894;2023-04-05T08:52:10;100966.06;;;8.76;68.26
67517;BME280;68821;59.134;37.894;2023-04-05T08:54:37;100961.09;;;8.80;68.59
67517;BME280;68821;59.134;37.894;2023-04-05T08:57:04;100967.16;;;8.82;68.88
67517;BME280;68821;59.134;37.894;2023-04-05T08:59:32;100967.44;;;8.92;68.64
67517;BME280;68821;59.134;37.894;2023-04-05T09:02:11;100966.72;;;8.96;67.91
67517;BME280;68821;59.134;37.894;2023-04-05T09:04:42;100974.19;;;8.90;67.83
67517;BME280;68821;59.134;37.894;2023-04-05T09:07:12;100975.63;;;8.81;67.88
67517;BME280;68821;59.134;37.894;2023-04-05T09:09:41;100972.06;;;8.76;68.11
67517;BME280;68821;59.134;37.894;2023-04-05T09:12:10;100971.00;;;8.70;68.03
67517;BME280;68821;59.134;37.894;2023-04-05T09:14:37;100976.16;;;8.71;68.30
67517;BME280;68821;59.134;37.894;2023-04-05T09:17:05;100972.66;;;8.69;68.26
67517;BME280;68821;59.134;37.894;2023-04-05T09:19:31;100981.13;;;8.66;68.78
67517;BME280;68821;59.134;37.894;2023-04-05T09:22:02;100981.97;;;8.65;68.49
67517;BME280;68821;59.134;37.894;2023-04-05T09:24:39;100992.25;;;8.67;68.46
67517;BME280;68821;59.134;37.894;2023-04-05T09:27:10;100993.72;;;8.60;68.69
67517;BME280;68821;59.134;37.894;2023-04-05T09:29:44;100997.13;;;8.59;68.51
67517;BME280;68821;59.134;37.894;2023-04-05T09:32:12;100994.38;;;8.55;68.83
67517;BME280;68821;59.134;37.894;2023-04-05T09:34:41;101004.53;;;8.52;68.16
67517;BME280;68821;59.134;37.894;2023-04-05T09:37:12;100994.78;;;8.41;68.35
67517;BME280;68821;59.134;37.894;2023-04-05T09:39:42;101005.72;;;8.37;68.82
67517;BME280;68821;59.134;37.894;2023-04-05T09:42:10;101012.41;;;8.34;68.87
67517;BME280;68821;59.134;37.894;2023-04-05T09:44:57;101000.31;;;8.30;68.53
67517;BME280;68821;59.134;37.894;2023-04-05T09:47:29;100999.44;;;8.29;68.52
67517;BME280;68821;59.134;37.894;2023-04-05T09:49:58;101002.47;;;8.41;68.60
67517;BME280;68821;59.134;37.894;2023-04-05T09:52:29;101011.94;;;8.44;68.00
67517;BME280;68821;59.134;37.894;2023-04-05T09:55:02;101011.38;;;8.29;68.41
67517;BME280;68821;59.134;37.894;2023-04-05T09:57:33;101012.13;;;8.26;68.27
67517;BME280;68821;59.134;37.894;2023-04-05T09:59:59;101014.09;;;8.33;68.69
67517;BME280;68821;59.134;37.894;2023-04-05T10:02:35;101014.66;;;8.49;68.47
67517;BME280;68821;59.134;37.894;2023-04-05T10:05:10;101018.56;;;8.61;68.48
67517;BME280;68821;59.134;37.894;2023-04-05T10:07:39;101020.56;;;8.70;68.12
67517;BME280;68821;59.134;37.894;2023-04-05T10:10:07;101025.84;;;8.75;68.28
67517;BME280;68821;59.134;37.894;2023-04-05T10:12:37;101029.94;;;8.70;67.35
67517;BME280;68821;59.134;37.894;2023-04-05T10:15:04;101027.53;;;8.74;68.20
67517;BME280;68821;59.134;37.894;2023-04-05T10:20:27;101024.53;;;9.12;67.18
67517;BME280;68821;59.134;37.894;2023-04-05T10:23:06;101027.56;;;9.25;67.08
67517;BME280;68821;59.134;37.894;2023-04-05T10:31:04;101019.53;;;9.42;66.21
67517;BME280;68821;59.134;37.894;2023-04-05T10:33:39;101025.66;;;9.47;66.28
67517;BME280;68821;59.134;37.894;2023-04-05T10:36:17;101023.72;;;9.40;66.21
67517;BME280;68821;59.134;37.894;2023-04-05T10:41:22;101029.69;;;9.39;66.48
67517;BME280;68821;59.134;37.894;2023-04-05T10:43:49;101028.28;;;9.49;65.83
67517;BME280;68821;59.134;37.894;2023-04-05T10:46:19;101030.03;;;9.50;65.35
67517;BME280;68821;59.134;37.894;2023-04-05T10:49:19;101027.31;;;9.45;66.44
67517;BME280;68821;59.134;37.894;2023-04-05T10:51:47;101040.31;;;9.50;65.80
67517;BME280;68821;59.134;37.894;2023-04-05T10:54:14;101030.03;;;9.50;65.67
67517;BME280;68821;59.134;37.894;2023-04-05T10:56:43;101029.19;;;9.51;65.11
67517;BME280;68821;59.134;37.894;2023-04-05T10:59:11;101042.22;;;9.57;65.82
67517;BME280;68821;59.134;37.894;2023-04-05T11:01:38;101040.00;;;9.67;65.71
67517;BME280;68821;59.134;37.894;2023-04-05T11:04:17;101038.50;;;9.74;65.48
67517;BME280;68821;59.134;37.894;2023-04-05T11:06:43;101043.66;;;9.76;64.76
67517;BME280;68821;59.134;37.894;2023-04-05T11:09:19;101049.50;;;9.70;65.97
67517;BME280;68821;59.134;37.894;2023-04-05T11:11:52;101047.88;;;9.72;65.65
67517;BME280;68821;59.134;37.894;2023-04-05T11:14:33;101041.28;;;9.82;65.30
67517;BME280;68821;59.134;37.894;2023-04-05T11:17:01;101036.06;;;9.79;65.12
67517;BME280;68821;59.134;37.894;2023-04-05T11:22:13;101034.00;;;9.67;65.77
67517;BME280;68821;59.134;37.894;2023-04-05T11:24:53;101033.31;;;9.73;65.58
67517;BME280;68821;59.134;37.894;2023-04-05T11:27:28;101031.84;;;9.81;64.32
67517;BME280;68821;59.134;37.894;2023-04-05T11:29:56;101030.94;;;9.79;65.36
67517;BME280;68821;59.134;37.894;2023-04-05T11:32:36;101036.31;;;9.86;64.93
67517;BME280;68821;59.134;37.894;2023-04-05T11:35:12;101037.41;;;9.95;64.24
67517;BME280;68821;59.134;37.894;2023-04-05T11:40:36;101041.16;;;9.77;64.88
67517;BME280;68821;59.134;37.894;2023-04-05T11:43:06;101039.81;;;9.61;65.13
67517;BME280;68821;59.134;37.894;2023-04-05T11:45:35;101043.34;;;9.65;65.02
67517;BME280;68821;59.134;37.894;2023-04-05T11:48:10;101037.78;;;9.78;64.90
67517;BME280;68821;59.134;37.894;2023-04-05T11:50:37;101036.72;;;10.00;64.62
67517;BME280;68821;59.134;37.894;2023-04-05T11:53:07;101040.34;;;10.07;64.53
67517;BME280;68821;59.134;37.894;2023-04-05T11:55:38;101041.63;;;10.21;64.74
67517;BME280;68821;59.134;37.894;2023-04-05T11:58:21;101042.13;;;10.38;64.64
67517;BME280;68821;59.134;37.894;2023-04-05T12:00:58;101048.19;;;10.40;64.00
67517;BME280;68821;59.134;37.894;2023-04-05T12:03:28;101043.06;;;10.40;64.22
67517;BME280;68821;59.134;37.894;2023-04-05T12:05:56;101044.47;;;10.31;64.29
67517;BME280;68821;59.134;37.894;2023-04-05T12:08:39;101045.41;;;10.33;64.31
67517;BME280;68821;59.134;37.894;2023-04-05T12:11:08;101050.38;;;10.57;63.48
67517;BME280;68821;59.134;37.894;2023-04-05T12:13:35;101050.00;;;10.75;62.97
67517;BME280;68821;59.134;37.894;2023-04-05T12:16:05;101055.31;;;10.82;63.45
67517;BME280;68821;59.134;37.894;2023-04-05T12:18:34;101049.44;;;10.86;63.72
67517;BME280;68821;59.134;37.894;2023-04-05T12:21:06;101058.28;;;10.96;63.04
67517;BME280;68821;59.134;37.894;2023-04-05T12:23:33;101063.50;;;10.99;63.03
67517;BME280;68821;59.134;37.894;2023-04-05T12:26:00;101071.84;;;10.91;63.07
67517;BME280;68821;59.134;37.894;2023-04-05T12:28:54;101060.47;;;10.81;63.26
67517;BME280;68821;59.134;37.894;2023-04-05T12:31:40;101060.06;;;10.67;62.93
67517;BME280;68821;59.134;37.894;2023-04-05T12:34:08;101065.84;;;10.60;63.59
67517;BME280;68821;59.134;37.894;2023-04-05T12:36:35;101067.44;;;10.55;63.50
67517;BME280;68821;59.134;37.894;2023-04-05T12:39:06;101054.88;;;10.35;63.35
67517;BME280;68821;59.134;37.894;2023-04-05T12:41:32;101066.59;;;10.27;63.51
67517;BME280;68821;59.134;37.894;2023-04-05T12:44:04;101058.53;;;10.13;63.25
67517;BME280;68821;59.134;37.894;2023-04-05T12:46:38;101064.03;;;9.98;63.35
67517;BME280;68821;59.134;37.894;2023-04-05T12:49:11;101070.75;;;9.93;63.70
67517;BME280;68821;59.134;37.894;2023-04-05T12:51:44;101070.94;;;9.99;63.21
67517;BME280;68821;59.134;37.894;2023-04-05T12:54:21;101071.47;;;9.89;62.99
67517;BME280;68821;59.134;37.894;2023-04-05T12:56:54;101071.97;;;9.77;63.84
67517;BME280;68821;59.134;37.894;2023-04-05T12:59:22;101062.91;;;9.61;64.06
67517;BME280;68821;59.134;37.894;2023-04-05T13:01:49;101071.97;;;9.50;64.28
67517;BME280;68821;59.134;37.894;2023-04-05T13:04:15;101074.81;;;9.32;64.57
67517;BME280;68821;59.134;37.894;2023-04-05T13:06:45;101071.56;;;9.12;64.79
67517;BME280;68821;59.134;37.894;2023-04-05T13:09:12;101086.66;;;9.03;65.05
67517;BME280;68821;59.134;37.894;2023-04-05T13:11:38;101087.38;;;8.99;64.82
67517;BME280;68821;59.134;37.894;2023-04-05T13:14:04;101087.84;;;8.89;65.24
67517;BME280;68821;59.134;37.894;2023-04-05T13:16:31;101092.72;;;8.81;64.95
67517;BME280;68821;59.134;37.894;2023-04-05T13:18:57;101095.13;;;8.76;65.30
67517;BME280;68821;59.134;37.894;2023-04-05T13:21:24;101102.69;;;8.73;65.34